Forest River, North Dakota
Current Conditions -  °F | °C
As of 11:35 PM on Wednesday 26 Nov 2014 (Local Time) from KGAF Reporting Station
Clear Clear  
Wind Chill: -9°   Ceiling: Unl
Heat Index: -9°   Visibility: 7mi
Dew Point: -13°   Wind: 0mph
Humidity: 84%   Direction: NA
Pressure: 30.56"   Gusts: NA
Location:  48.22°N, 97.47°W
Report Text: KGAF 270535Z AUTO 00000KT 7SM CLR M23/M25 A3056 RMK AO2
Loading
Personal Weather Stations






























Interactive Weather Map New forecast layout! Learn more

10-Day Weather Forecast

Advertisements
Track Severe Weather on mobile